Time;durP1;ratioP1;P1;durP2;ratioP2;P2;SDS_P1;SDS_P2;PMS_P1;PMS_P2;Temp;Humidity;BMP_temperature;BMP_pressure;BME280_temperature;BME280_humidity;BME280_pressure;Samples;Min_cycle;Max_cycle;Signal;HPM_P1;HPM_P2
2023/09/16 00:00:57;;;;;;;;;;;;;;;16.29;45.10;101107.41;5058754;28;1047;-58
2023/09/16 00:03:23;;;;;;;;;;;;;;;16.33;45.26;101111.28;5058727;28;1091;-58
2023/09/16 00:05:48;;;;;;;;;;;;;;;16.33;44.88;101105.81;5067276;28;1162;-58
2023/09/16 00:08:14;;;;;;;;;;;;;;;16.20;44.85;101109.81;5063864;28;1027;-58
2023/09/16 00:10:40;;;;;;;;;;;;;;;16.25;44.74;101104.38;5059108;28;1886;-57
2023/09/16 00:13:05;;;;;;;;;;;;;;;16.11;44.83;101103.16;5073147;28;1114;-58
2023/09/16 00:15:31;;;;;;;;;;;;;;;16.15;44.90;101104.28;5070343;28;898;-58
2023/09/16 00:17:56;;;;;;;;;;;;;;;16.30;45.35;101107.16;5059785;28;1122;-58
2023/09/16 00:20:25;;;;;;;;;;;;;;;16.67;46.22;101100.78;5071356;28;1130;-58
2023/09/16 00:22:51;;;;;;;;;;;;;;;16.46;46.05;101104.50;5058505;28;1121;-58
2023/09/16 00:25:16;;;;;;;;;;;;;;;16.37;46.00;101102.25;5066060;28;1064;-58
2023/09/16 00:27:42;;;;;;;;;;;;;;;16.29;45.43;101102.75;5064137;28;1015;-58
2023/09/16 00:30:08;;;;;;;;;;;;;;;16.32;45.19;101090.41;5066013;28;1910;-58
2023/09/16 00:32:34;;;;;;;;;;;;;;;16.73;45.53;101098.88;5077263;28;1050;-58
2023/09/16 00:34:59;;;;;;;;;;;;;;;16.80;46.77;101109.63;5040177;28;1055;-58
2023/09/16 00:37:25;;;;;;;;;;;;;;;16.56;46.72;101104.56;5058449;28;1071;-58
2023/09/16 00:39:50;;;;;;;;;;;;;;;16.48;46.19;101107.81;5048177;28;1406;-58
2023/09/16 00:42:16;;;;;;;;;;;;;;;16.45;45.54;101102.84;5077050;28;1115;-58
2023/09/16 00:44:42;;;;;;;;;;;;;;;16.31;45.48;101106.03;5057896;28;1225;-58
2023/09/16 00:47:07;;;;;;;;;;;;;;;16.89;46.56;101110.81;5054677;28;1101;-58
2023/09/16 00:49:33;;;;;;;;;;;;;;;16.54;46.78;101104.84;5078126;28;1913;-58
2023/09/16 00:51:59;;;;;;;;;;;;;;;16.55;45.94;101105.66;5063563;28;1149;-58
2023/09/16 00:54:24;;;;;;;;;;;;;;;16.29;46.09;101100.00;5039925;28;1412;-58
2023/09/16 00:56:50;;;;;;;;;;;;;;;16.40;45.36;101107.22;5072143;28;1019;-58
2023/09/16 00:59:15;;;;;;;;;;;;;;;16.31;45.26;101111.53;5060185;28;1262;-57
2023/09/16 01:01:41;;;;;;;;;;;;;;;16.24;45.28;101113.69;5059480;28;1154;-58
2023/09/16 01:04:07;;;;;;;;;;;;;;;16.27;45.00;101110.44;5059067;28;1128;-58
2023/09/16 01:06:32;;;;;;;;;;;;;;;17.17;45.55;101117.00;5076382;28;1113;-58
2023/09/16 01:08:58;;;;;;;;;;;;;;;16.60;46.61;101124.91;5065380;28;1422;-58
2023/09/16 01:11:24;;;;;;;;;;;;;;;16.50;46.18;101119.38;5046723;28;1976;-58
2023/09/16 01:13:50;;;;;;;;;;;;;;;16.41;45.59;101119.00;5051811;28;1309;-58
2023/09/16 01:16:34;;;;;;;;;;;;;;;16.40;45.55;101115.44;5057749;28;1055;-58
2023/09/16 01:19:14;;;;;;;;;;;;;;;16.37;45.35;101124.22;5057968;28;1111;-57
2023/09/16 01:21:40;;;;;;;;;;;;;;;16.28;45.01;101128.53;5042184;28;1123;-56
2023/09/16 01:24:23;;;;;;;;;;;;;;;17.20;45.98;101133.75;5045672;28;1070;-57
2023/09/16 01:26:49;;;;;;;;;;;;;;;16.60;46.57;101127.66;5067472;28;1022;-57
2023/09/16 01:29:15;;;;;;;;;;;;;;;16.47;46.15;101130.88;5070469;28;1914;-57
2023/09/16 01:31:40;;;;;;;;;;;;;;;16.41;46.01;101136.31;5057269;28;1083;-57
2023/09/16 01:34:13;;;;;;;;;;;;;;;16.41;45.38;101133.56;5026252;28;1243;-57
2023/09/16 01:36:40;;;;;;;;;;;;;;;16.39;45.11;101138.47;5034516;28;1116;-56
2023/09/16 01:39:08;;;;;;;;;;;;;;;16.29;45.22;101141.16;5037125;28;1340;-57
2023/09/16 01:41:38;;;;;;;;;;;;;;;16.30;44.93;101144.72;5068759;28;1108;-57
2023/09/16 01:44:04;;;;;;;;;;;;;;;16.31;44.87;101141.72;5039270;28;1150;-56
2023/09/16 01:46:30;;;;;;;;;;;;;;;16.15;44.99;101138.03;5056982;28;1055;-57
2023/09/16 01:48:55;;;;;;;;;;;;;;;16.64;45.53;101147.19;5055135;28;1131;-56
2023/09/16 01:51:22;;;;;;;;;;;;;;;16.64;46.72;101142.50;5072486;28;1988;-56
2023/09/16 01:53:47;;;;;;;;;;;;;;;16.32;46.77;101140.63;5070057;28;1102;-56
2023/09/16 01:56:13;;;;;;;;;;;;;;;16.39;45.95;101145.91;5056770;28;1039;-56
2023/09/16 01:58:38;;;;;;;;;;;;;;;16.30;45.75;101141.97;5052490;28;1249;-57
2023/09/16 02:01:08;;;;;;;;;;;;;;;16.33;45.37;101144.22;5066094;28;1016;-56
2023/09/16 02:03:33;;;;;;;;;;;;;;;16.35;45.22;101142.84;5073333;28;1038;-56
2023/09/16 02:05:59;;;;;;;;;;;;;;;16.14;45.15;101141.84;5059237;28;1032;-56
2023/09/16 02:08:25;;;;;;;;;;;;;;;16.23;44.92;101139.47;5055421;28;1101;-56
2023/09/16 02:10:51;;;;;;;;;;;;;;;16.22;44.79;101146.06;5065692;28;1901;-56
2023/09/16 02:13:16;;;;;;;;;;;;;;;16.13;44.90;101139.38;5062988;28;1214;-57
2023/09/16 02:15:42;;;;;;;;;;;;;;;16.13;44.57;101148.47;5066642;28;1066;-57
2023/09/16 02:18:09;;;;;;;;;;;;;;;16.10;44.73;101156.38;5038253;28;1181;-57
2023/09/16 02:20:34;;;;;;;;;;;;;;;17.02;45.43;101153.47;5048275;28;1165;-56
2023/09/16 02:23:01;;;;;;;;;;;;;;;16.55;45.94;101155.06;5073442;28;1066;-57
2023/09/16 02:25:26;;;;;;;;;;;;;;;16.34;45.96;101157.69;5048362;28;1154;-58
2023/09/16 02:27:53;;;;;;;;;;;;;;;16.26;45.65;101152.66;5059839;28;1098;-57
2023/09/16 02:30:18;;;;;;;;;;;;;;;16.22;45.61;101154.28;5065743;28;1905;-57
2023/09/16 02:32:44;;;;;;;;;;;;;;;16.24;45.03;101152.94;5058425;28;1218;-58
2023/09/16 02:35:09;;;;;;;;;;;;;;;16.19;45.05;101160.31;5055287;28;1150;-58
2023/09/16 02:37:35;;;;;;;;;;;;;;;16.15;44.94;101159.97;5041808;28;1386;-58
2023/09/16 02:40:02;;;;;;;;;;;;;;;17.23;45.43;101165.38;5040986;28;1123;-57
2023/09/16 02:42:28;;;;;;;;;;;;;;;16.60;46.73;101177.88;5038261;28;1151;-57
2023/09/16 02:44:54;;;;;;;;;;;;;;;16.40;46.23;101172.28;5065100;28;1118;-57
2023/09/16 02:47:22;;;;;;;;;;;;;;;16.40;45.75;101183.25;5063273;28;1115;-57
2023/09/16 02:49:48;;;;;;;;;;;;;;;16.30;45.54;101184.00;5048803;28;1906;-57
2023/09/16 02:52:15;;;;;;;;;;;;;;;16.31;45.13;101185.63;5046012;28;2110;-57
2023/09/16 02:54:41;;;;;;;;;;;;;;;16.21;44.92;101182.81;5038386;28;1211;-57
2023/09/16 02:57:07;;;;;;;;;;;;;;;16.17;45.00;101187.16;5056244;28;1055;-57
2023/09/16 02:59:32;;;;;;;;;;;;;;;16.20;45.13;101183.88;5065785;28;1016;-57
2023/09/16 03:01:58;;;;;;;;;;;;;;;16.69;46.40;101185.63;5057806;28;1182;-57
2023/09/16 03:04:23;;;;;;;;;;;;;;;16.50;46.24;101182.50;5067665;28;1027;-57
2023/09/16 03:06:49;;;;;;;;;;;;;;;16.40;45.66;101188.75;5038017;28;1131;-57
2023/09/16 03:09:14;;;;;;;;;;;;;;;16.33;45.51;101199.09;5055460;28;1906;-57
2023/09/16 03:11:41;;;;;;;;;;;;;;;16.29;45.24;101197.97;5038161;28;1419;-57
2023/09/16 03:14:06;;;;;;;;;;;;;;;17.01;46.09;101199.34;5038139;28;1127;-59
2023/09/16 03:16:32;;;;;;;;;;;;;;;16.57;46.53;101192.16;5059353;28;1082;-57
2023/09/16 03:18:58;;;;;;;;;;;;;;;16.45;46.15;101190.69;5047348;28;1138;-60
2023/09/16 03:21:25;;;;;;;;;;;;;;;16.34;45.85;101198.84;5041847;28;1075;-59
2023/09/16 03:23:55;;;;;;;;;;;;;;;16.25;45.70;101200.41;5047057;28;1146;-58
2023/09/16 03:26:22;;;;;;;;;;;;;;;16.91;45.75;101199.28;5057593;28;1202;-60
2023/09/16 03:28:51;;;;;;;;;;;;;;;16.83;47.12;101202.47;5051290;28;1119;-60
2023/09/16 03:31:22;;;;;;;;;;;;;;;16.59;46.95;101197.38;5054809;28;1911;-58
2023/09/16 03:33:47;;;;;;;;;;;;;;;17.15;46.90;101196.91;5059082;28;1329;-59
2023/09/16 03:36:14;;;;;;;;;;;;;;;16.80;47.45;101195.59;5053957;28;1149;-58
2023/09/16 03:38:46;;;;;;;;;;;;;;;16.69;47.07;101204.84;5061435;28;1130;-57
2023/09/16 03:41:12;;;;;;;;;;;;;;;16.52;46.32;101202.25;5055366;28;1299;-57
2023/09/16 03:43:40;;;;;;;;;;;;;;;16.53;45.94;101203.94;5041493;28;1367;-54
2023/09/16 03:46:05;;;;;;;;;;;;;;;16.49;45.54;101208.28;5065748;28;1269;-55
2023/09/16 03:48:31;;;;;;;;;;;;;;;16.40;45.18;101213.44;5048525;28;1329;-55
2023/09/16 03:50:56;;;;;;;;;;;;;;;16.39;45.19;101214.53;5072021;28;1969;-54
2023/09/16 03:53:25;;;;;;;;;;;;;;;16.29;45.00;101214.44;5041197;28;1523;-56
2023/09/16 03:55:52;;;;;;;;;;;;;;;16.41;46.15;101215.06;5053831;28;1079;-57
2023/09/16 03:58:18;;;;;;;;;;;;;;;16.41;46.39;101223.31;5041161;28;1234;-57
2023/09/16 04:00:44;;;;;;;;;;;;;;;16.73;46.62;101220.56;5066432;28;1055;-56
2023/09/16 04:03:11;;;;;;;;;;;;;;;16.94;47.73;101212.47;5064193;28;1038;-56
2023/09/16 04:05:37;;;;;;;;;;;;;;;16.58;47.52;101223.19;5054594;28;1090;-57
2023/09/16 04:08:02;;;;;;;;;;;;;;;16.56;46.80;101208.88;5078802;28;1224;-56
2023/09/16 04:10:28;;;;;;;;;;;;;;;16.45;46.18;101220.88;5071242;28;1981;-57
2023/09/16 04:12:53;;;;;;;;;;;;;;;16.96;46.59;101218.53;5071983;28;1043;-58
2023/09/16 04:15:19;;;;;;;;;;;;;;;16.97;47.45;101216.59;5058864;28;1078;-57
2023/09/16 04:17:45;;;;;;;;;;;;;;;16.71;46.78;101221.91;5058757;28;917;-57
2023/09/16 04:20:10;;;;;;;;;;;;;;;16.65;46.36;101211.97;5043800;28;1123;-57
2023/09/16 04:22:36;;;;;;;;;;;;;;;16.54;45.83;101205.59;5062839;28;1225;-57
2023/09/16 04:25:01;;;;;;;;;;;;;;;16.47;45.72;101210.47;5058551;28;1241;-58
2023/09/16 04:27:28;;;;;;;;;;;;;;;16.48;45.56;101212.97;5054937;28;1412;-59
2023/09/16 04:29:54;;;;;;;;;;;;;;;16.40;45.14;101214.25;5059367;28;1914;-57
2023/09/16 04:32:20;;;;;;;;;;;;;;;16.35;45.22;101213.38;5057051;28;1378;-57
2023/09/16 04:34:46;;;;;;;;;;;;;;;16.24;45.27;101213.31;5058178;28;1854;-57
2023/09/16 04:37:12;;;;;;;;;;;;;;;16.31;45.13;101217.75;5058628;28;1270;-58
2023/09/16 04:39:38;;;;;;;;;;;;;;;16.19;45.09;101216.00;5060521;28;1203;-58
2023/09/16 04:42:03;;;;;;;;;;;;;;;17.47;44.01;101211.66;5047029;28;908;-58
2023/09/16 04:44:29;;;;;;;;;;;;;;;17.20;44.77;101213.44;5059434;28;1110;-58
2023/09/16 04:46:55;;;;;;;;;;;;;;;17.05;45.49;101214.19;5078323;28;1197;-57
2023/09/16 04:49:23;;;;;;;;;;;;;;;16.98;45.74;101227.31;5053956;28;1905;-58
2023/09/16 04:51:49;;;;;;;;;;;;;;;16.82;46.32;101215.41;5039970;28;1122;-58
2023/09/16 04:54:14;;;;;;;;;;;;;;;16.77;46.78;101216.19;5066152;28;1139;-57
2023/09/16 04:56:40;;;;;;;;;;;;;;;16.69;47.26;101213.94;5047730;28;1195;-57
2023/09/16 04:59:05;;;;;;;;;;;;;;;16.68;47.16;101212.28;5053646;28;1398;-58
2023/09/16 05:01:32;;;;;;;;;;;;;;;16.58;47.75;101223.19;5052537;28;1345;-57
2023/09/16 05:03:57;;;;;;;;;;;;;;;16.50;47.94;101221.75;5077348;28;1146;-58
2023/09/16 05:06:24;;;;;;;;;;;;;;;16.52;48.21;101219.59;5054713;28;1995;-57
2023/09/16 05:08:50;;;;;;;;;;;;;;;16.49;48.26;101224.75;5045576;28;1397;-58
2023/09/16 05:11:15;;;;;;;;;;;;;;;16.40;48.69;101227.97;5062010;28;1965;-62
2023/09/16 05:13:51;;;;;;;;;;;;;;;16.41;48.80;101228.78;5058823;28;1178;-58
2023/09/16 05:16:17;;;;;;;;;;;;;;;16.36;49.17;101226.84;5055888;28;1434;-59
2023/09/16 05:18:42;;;;;;;;;;;;;;;16.28;49.20;101223.75;5054769;28;1008;-58
2023/09/16 05:21:08;;;;;;;;;;;;;;;16.26;49.59;101229.50;5055094;28;1238;-59
2023/09/16 05:23:37;;;;;;;;;;;;;;;16.56;48.88;101225.34;5054920;28;1324;-58
2023/09/16 05:26:04;;;;;;;;;;;;;;;17.45;47.11;101226.47;5056182;28;1339;-56
2023/09/16 05:28:32;;;;;;;;;;;;;;;16.91;48.33;101227.59;5044825;28;1444;-56
2023/09/16 05:31:00;;;;;;;;;;;;;;;16.72;49.01;101224.38;5040357;28;1988;-59
2023/09/16 05:33:28;;;;;;;;;;;;;;;16.58;49.35;101242.41;5057440;28;1437;-52
2023/09/16 05:35:54;;;;;;;;;;;;;;;16.49;49.55;101230.25;5056387;28;1274;-51
2023/09/16 05:38:20;;;;;;;;;;;;;;;16.49;49.66;101236.56;5059176;28;1305;-52
2023/09/16 05:40:46;;;;;;;;;;;;;;;16.43;49.85;101237.63;5057967;28;1244;-55
2023/09/16 05:43:12;;;;;;;;;;;;;;;16.36;50.16;101234.25;5052636;28;1126;-57
2023/09/16 05:45:37;;;;;;;;;;;;;;;16.70;49.77;101237.53;5062128;28;1229;-56
2023/09/16 05:48:04;;;;;;;;;;;;;;;17.44;47.87;101241.31;5054877;28;1272;-56
2023/09/16 05:50:32;;;;;;;;;;;;;;;16.96;49.23;101236.91;5050020;28;2210;-56
2023/09/16 05:52:58;;;;;;;;;;;;;;;16.71;49.77;101241.13;5054257;28;1133;-56
2023/09/16 05:55:24;;;;;;;;;;;;;;;16.65;50.00;101248.50;5058710;28;1204;-54
2023/09/16 05:57:50;;;;;;;;;;;;;;;16.54;50.19;101250.34;5043366;28;1163;-54
2023/09/16 06:00:16;;;;;;;;;;;;;;;16.47;50.43;101251.66;5041113;28;2528;-55
2023/09/16 06:02:41;;;;;;;;;;;;;;;16.41;50.64;101250.75;5041330;28;1965;-58
2023/09/16 06:05:08;;;;;;;;;;;;;;;16.40;50.67;101254.59;5054572;28;2114;-55
2023/09/16 06:07:39;;;;;;;;;;;;;;;16.37;50.77;101260.63;5051427;28;2202;-56
2023/09/16 06:10:06;;;;;;;;;;;;;;;16.33;50.97;101259.50;5044364;28;2106;-55
2023/09/16 06:12:33;;;;;;;;;;;;;;;16.31;51.24;101267.13;5046894;28;1875;-57
2023/09/16 06:14:58;;;;;;;;;;;;;;;17.32;49.16;101268.22;5069728;28;2237;-56
2023/09/16 06:17:24;;;;;;;;;;;;;;;17.22;49.27;101268.97;5054818;28;1448;-57
2023/09/16 06:19:56;;;;;;;;;;;;;;;16.86;50.28;101270.63;5048695;28;1158;-56
2023/09/16 06:22:23;;;;;;;;;;;;;;;16.71;50.76;101277.66;5053591;28;1123;-57
2023/09/16 06:24:49;;;;;;;;;;;;;;;16.64;51.00;101270.75;5049164;28;1083;-57
2023/09/16 06:27:15;;;;;;;;;;;;;;;16.56;51.08;101274.78;5044479;28;1299;-56
2023/09/16 06:29:41;;;;;;;;;;;;;;;16.52;51.41;101279.13;5069994;28;1906;-57
2023/09/16 06:32:08;;;;;;;;;;;;;;;16.47;51.33;101281.84;5039846;28;1291;-57
2023/09/16 06:34:34;;;;;;;;;;;;;;;16.40;51.59;101282.88;5050057;28;1222;-55
2023/09/16 06:37:00;;;;;;;;;;;;;;;16.62;51.18;101292.13;5047060;28;1138;-56
2023/09/16 06:39:26;;;;;;;;;;;;;;;17.39;49.48;101285.28;5042652;28;1308;-55
2023/09/16 06:41:52;;;;;;;;;;;;;;;16.88;50.82;101288.53;5037453;28;1302;-56
2023/09/16 06:44:17;;;;;;;;;;;;;;;16.72;51.21;101295.78;5048605;28;1846;-56
2023/09/16 06:46:43;;;;;;;;;;;;;;;16.62;51.50;101305.84;5047145;28;1225;-54
2023/09/16 06:49:09;;;;;;;;;;;;;;;16.63;51.41;101296.53;5073458;28;1096;-55
2023/09/16 06:51:34;;;;;;;;;;;;;;;16.53;51.99;101302.75;5075224;28;1896;-56
2023/09/16 06:54:00;;;;;;;;;;;;;;;16.53;51.64;101305.50;5068858;28;1060;-56
2023/09/16 06:56:25;;;;;;;;;;;;;;;17.61;49.67;101306.28;5055052;28;1051;-58
2023/09/16 06:58:51;;;;;;;;;;;;;;;17.09;50.59;101305.97;5062186;28;1245;-57
2023/09/16 07:01:16;;;;;;;;;;;;;;;16.88;51.34;101299.50;5056851;28;1075;-55
2023/09/16 07:03:42;;;;;;;;;;;;;;;16.80;51.53;101301.88;5061621;28;1054;-56
2023/09/16 07:06:08;;;;;;;;;;;;;;;16.76;51.87;101313.41;5075437;28;1102;-57
2023/09/16 07:08:33;;;;;;;;;;;;;;;16.67;52.08;101312.22;5079687;28;1464;-58
2023/09/16 07:10:59;;;;;;;;;;;;;;;16.58;52.29;101306.38;5065901;28;1975;-55
2023/09/16 07:13:24;;;;;;;;;;;;;;;16.62;52.10;101306.69;5076470;28;2451;-53
2023/09/16 07:15:53;;;;;;;;;;;;;;;16.56;52.34;101307.72;5064287;28;1087;-55
2023/09/16 07:18:19;;;;;;;;;;;;;;;16.50;52.33;101315.09;5075396;28;1099;-57
2023/09/16 07:20:45;;;;;;;;;;;;;;;16.43;52.49;101309.78;5066052;28;971;-55
2023/09/16 07:23:10;;;;;;;;;;;;;;;16.52;52.46;101318.41;5079136;28;1038;-52
2023/09/16 07:25:36;;;;;;;;;;;;;;;16.43;52.50;101318.03;5055919;28;1187;-55
2023/09/16 07:28:04;;;;;;;;;;;;;;;16.41;52.62;101322.13;5071062;28;1062;-55
2023/09/16 07:30:32;;;;;;;;;;;;;;;16.39;52.55;101316.88;5075572;28;1976;-53
2023/09/16 07:32:58;;;;;;;;;;;;;;;16.40;52.48;101326.78;5067354;28;1158;-57
2023/09/16 07:35:23;;;;;;;;;;;;;;;16.68;52.60;101327.59;5072078;28;1170;-56
2023/09/16 07:37:50;;;;;;;;;;;;;;;17.54;50.67;101328.53;5076217;28;1099;-56
2023/09/16 07:40:15;;;;;;;;;;;;;;;16.94;52.22;101330.59;5067786;28;1264;-56
2023/09/16 07:42:41;;;;;;;;;;;;;;;16.82;52.76;101327.19;5074958;28;1219;-55
2023/09/16 07:45:07;;;;;;;;;;;;;;;16.71;53.13;101331.75;5079092;28;2629;-58
2023/09/16 07:47:32;;;;;;;;;;;;;;;16.63;53.16;101330.28;5072197;28;1077;-56
2023/09/16 07:49:58;;;;;;;;;;;;;;;16.67;52.62;101336.09;5058737;28;1906;-51
2023/09/16 07:52:23;;;;;;;;;;;;;;;16.55;53.18;101333.50;5064491;28;1143;-55
2023/09/16 07:54:49;;;;;;;;;;;;;;;16.54;53.16;101329.94;5075933;28;1014;-52
2023/09/16 07:57:14;;;;;;;;;;;;;;;16.46;53.12;101341.38;5059562;28;1070;-53
2023/09/16 07:59:40;;;;;;;;;;;;;;;16.46;53.11;101341.38;5070727;28;1032;-54
2023/09/16 08:02:05;;;;;;;;;;;;;;;16.45;53.27;101347.97;5065345;28;1257;-53
2023/09/16 08:04:31;;;;;;;;;;;;;;;16.46;53.21;101340.56;5066378;28;1019;-52
2023/09/16 08:06:57;;;;;;;;;;;;;;;16.97;53.12;101340.22;5063355;28;1082;-55
2023/09/16 08:09:23;;;;;;;;;;;;;;;17.42;52.08;101339.75;5069726;28;1901;-49
2023/09/16 08:11:48;;;;;;;;;;;;;;;16.99;53.32;101338.88;5059157;28;1130;-53
2023/09/16 08:14:14;;;;;;;;;;;;;;;16.84;53.49;101335.97;5060466;28;2384;-53
2023/09/16 08:16:39;;;;;;;;;;;;;;;16.77;53.78;101347.19;5063688;28;1088;-53
2023/09/16 08:19:05;;;;;;;;;;;;;;;16.67;53.93;101334.19;5058634;28;1170;-55
2023/09/16 08:21:30;;;;;;;;;;;;;;;16.66;53.79;101334.44;5072379;28;1071;-55
2023/09/16 08:23:56;;;;;;;;;;;;;;;16.59;54.01;101346.47;5070112;28;1071;-60
2023/09/16 08:26:21;;;;;;;;;;;;;;;16.59;54.04;101349.22;5072916;28;1148;-52
2023/09/16 08:28:47;;;;;;;;;;;;;;;16.50;54.17;101347.22;5057911;28;1082;-55
2023/09/16 08:31:12;;;;;;;;;;;;;;;16.49;54.18;101351.03;5065347;28;1973;-56
2023/09/16 08:33:38;;;;;;;;;;;;;;;16.47;54.03;101345.81;5070141;28;1051;-50
2023/09/16 08:36:03;;;;;;;;;;;;;;;16.48;53.97;101350.22;5064469;28;1054;-57
2023/09/16 08:38:29;;;;;;;;;;;;;;;16.46;54.01;101340.56;5077554;28;1101;-56
2023/09/16 08:41:20;;;;;;;;;;;;;;;16.44;54.22;101338.09;5061245;28;1011;-52
2023/09/16 08:43:46;;;;;;;;;;;;;;;16.41;54.10;101346.81;5035578;28;2386;-56
2023/09/16 08:46:14;;;;;;;;;;;;;;;17.50;53.47;101343.91;5077573;28;924;-53
2023/09/16 08:48:41;;;;;;;;;;;;;;;17.17;54.07;101342.31;5059549;28;1030;-53
2023/09/16 08:51:06;;;;;;;;;;;;;;;16.93;54.79;101345.44;5070335;28;1906;-56
2023/09/16 08:53:34;;;;;;;;;;;;;;;16.83;54.60;101343.41;5070343;28;1266;-55
2023/09/16 08:56:00;;;;;;;;;;;;;;;16.79;54.93;101344.16;5066030;28;876;-56
2023/09/16 08:58:25;;;;;;;;;;;;;;;16.67;54.89;101341.59;5058058;28;1047;-56
2023/09/16 09:00:51;;;;;;;;;;;;;;;16.65;54.72;101341.88;5052485;28;1030;-55
2023/09/16 09:03:16;;;;;;;;;;;;;;;16.64;54.63;101345.69;5058001;28;1028;-57
2023/09/16 09:05:42;;;;;;;;;;;;;;;16.63;54.73;101340.47;5077538;28;1014;-55
2023/09/16 09:08:09;;;;;;;;;;;;;;;16.60;54.85;101341.81;5043439;28;925;-54
2023/09/16 09:10:35;;;;;;;;;;;;;;;16.59;54.65;101341.00;5057879;28;1972;-55
2023/09/16 09:13:01;;;;;;;;;;;;;;;16.58;54.66;101341.25;5069545;28;2274;-54
2023/09/16 09:15:27;;;;;;;;;;;;;;;16.49;54.62;101342.78;5059588;28;1079;-53
2023/09/16 09:17:56;;;;;;;;;;;;;;;16.55;54.46;101341.75;5063007;28;1054;-57
2023/09/16 09:20:25;;;;;;;;;;;;;;;16.49;54.70;101340.88;5063669;28;1297;-56
2023/09/16 09:22:50;;;;;;;;;;;;;;;16.49;54.55;101340.06;5056795;28;1146;-57
2023/09/16 09:25:22;;;;;;;;;;;;;;;16.46;54.49;101340.56;5062523;28;1285;-57
2023/09/16 09:27:51;;;;;;;;;;;;;;;16.43;54.64;101333.69;5059720;28;1206;-55
2023/09/16 09:30:19;;;;;;;;;;;;;;;16.50;54.53;101338.97;5066579;28;1972;-54
2023/09/16 09:32:45;;;;;;;;;;;;;;;16.45;54.80;101338.91;5072467;28;1178;-55
2023/09/16 09:35:11;;;;;;;;;;;;;;;16.41;54.85;101335.84;5076701;28;1114;-55
2023/09/16 09:37:37;;;;;;;;;;;;;;;16.45;54.53;101334.25;5060384;28;1146;-54
2023/09/16 09:40:12;;;;;;;;;;;;;;;16.41;54.66;101338.59;5059744;28;1316;-58
2023/09/16 09:42:40;;;;;;;;;;;;;;;17.58;54.55;101329.66;5059244;28;1171;-56
2023/09/16 09:45:05;;;;;;;;;;;;;;;17.19;55.33;101323.63;5061254;28;2539;-56
2023/09/16 09:47:31;;;;;;;;;;;;;;;16.96;55.81;101325.69;5067357;28;1055;-55
2023/09/16 09:49:57;;;;;;;;;;;;;;;16.84;55.83;101327.75;5070021;28;1905;-56
2023/09/16 09:52:22;;;;;;;;;;;;;;;16.79;55.58;101324.94;5068874;28;1083;-54
2023/09/16 09:54:50;;;;;;;;;;;;;;;16.70;55.39;101330.09;5072007;28;1058;-53
2023/09/16 09:57:16;;;;;;;;;;;;;;;16.72;55.18;101334.22;5076282;28;1046;-56
2023/09/16 09:59:42;;;;;;;;;;;;;;;16.68;55.29;101333.09;5050587;28;1126;-56
2023/09/16 10:02:07;;;;;;;;;;;;;;;16.65;55.08;101333.63;5058470;28;1078;-62
2023/09/16 10:04:32;;;;;;;;;;;;;;;16.60;55.45;101325.34;5058971;28;1100;-57
2023/09/16 10:07:00;;;;;;;;;;;;;;;16.58;55.02;101333.00;5055516;28;1202;-56
2023/09/16 10:09:25;;;;;;;;;;;;;;;16.55;55.24;101328.88;5038410;28;1906;-57
2023/09/16 10:11:51;;;;;;;;;;;;;;;16.57;55.23;101334.09;5060499;28;1051;-57
2023/09/16 10:14:16;;;;;;;;;;;;;;;16.56;55.04;101333.28;5060284;28;1795;-55
2023/09/16 10:16:42;;;;;;;;;;;;;;;16.53;55.19;101339.25;5064216;28;1178;-55
2023/09/16 10:19:09;;;;;;;;;;;;;;;16.56;55.04;101335.19;5058197;28;1098;-56
2023/09/16 10:21:35;;;;;;;;;;;;;;;16.49;54.98;101340.88;5062632;28;1412;-55
2023/09/16 10:24:01;;;;;;;;;;;;;;;16.47;55.20;101336.75;5046773;28;1089;-56
2023/09/16 10:26:26;;;;;;;;;;;;;;;16.46;55.01;101330.41;5060673;28;1075;-57
2023/09/16 10:28:52;;;;;;;;;;;;;;;16.50;54.95;101336.22;5064851;28;1392;-55
2023/09/16 10:31:18;;;;;;;;;;;;;;;17.28;55.66;101330.31;5051614;28;1925;-58
2023/09/16 10:33:43;;;;;;;;;;;;;;;17.52;55.87;101336.22;5056006;28;1100;-60
2023/09/16 10:36:09;;;;;;;;;;;;;;;17.12;56.26;101332.09;5073479;28;1155;-55
2023/09/16 10:38:34;;;;;;;;;;;;;;;16.97;56.13;101321.00;5076218;28;1086;-57
2023/09/16 10:41:00;;;;;;;;;;;;;;;16.89;56.30;101322.31;5054061;28;1063;-56
2023/09/16 10:43:25;;;;;;;;;;;;;;;16.88;55.85;101323.38;5059845;28;1875;-57
2023/09/16 10:45:51;;;;;;;;;;;;;;;16.82;55.54;101321.69;5071861;28;1062;-56
2023/09/16 10:48:16;;;;;;;;;;;;;;;16.78;55.37;101321.38;5066794;28;1132;-64
2023/09/16 10:50:43;;;;;;;;;;;;;;;16.84;55.20;101314.00;5058324;28;1967;-60
2023/09/16 10:53:12;;;;;;;;;;;;;;;16.74;55.28;101315.56;5048719;28;1226;-53
2023/09/16 10:55:39;;;;;;;;;;;;;;;16.64;55.20;101315.50;5074737;28;1059;-61
2023/09/16 10:58:15;;;;;;;;;;;;;;;16.67;54.95;101314.97;5064350;28;1110;-61
2023/09/16 11:01:01;;;;;;;;;;;;;;;16.64;55.14;101310.00;5068562;28;1206;-52
2023/09/16 11:03:33;;;;;;;;;;;;;;;16.60;54.89;101304.19;5067692;28;1387;-57
2023/09/16 11:05:59;;;;;;;;;;;;;;;16.58;54.82;101308.31;5065504;28;991;-56
2023/09/16 11:08:25;;;;;;;;;;;;;;;16.50;55.17;101308.78;5064606;28;1197;-57
2023/09/16 11:10:50;;;;;;;;;;;;;;;16.55;55.00;101306.91;5065887;28;1917;-59
2023/09/16 11:13:16;;;;;;;;;;;;;;;16.56;54.81;101296.75;5071862;28;2425;-58
2023/09/16 11:15:41;;;;;;;;;;;;;;;16.52;54.80;101296.44;5046901;28;1023;-56
2023/09/16 11:18:10;;;;;;;;;;;;;;;17.34;55.97;101289.94;5072127;28;1002;-57
2023/09/16 11:20:36;;;;;;;;;;;;;;;17.36;56.22;101294.09;5055393;28;845;-57
2023/09/16 11:23:02;;;;;;;;;;;;;;;17.05;56.53;101295.78;5058439;28;1117;-57
2023/09/16 11:25:32;;;;;;;;;;;;;;;16.99;56.21;101294.94;5075091;28;987;-57
2023/09/16 11:27:57;;;;;;;;;;;;;;;16.90;55.88;101293.75;5062065;28;1039;-53
2023/09/16 11:30:22;;;;;;;;;;;;;;;16.86;55.53;101289.88;5064115;28;1913;-57
2023/09/16 11:32:57;;;;;;;;;;;;;;;16.82;55.38;101288.72;5063182;28;1183;-57
2023/09/16 11:35:23;;;;;;;;;;;;;;;16.77;55.37;101293.09;5066707;28;1078;-55
2023/09/16 11:37:49;;;;;;;;;;;;;;;16.68;55.52;101289.16;5057010;28;1038;-54
2023/09/16 11:40:14;;;;;;;;;;;;;;;16.66;55.45;101285.88;5055613;28;980;-56
2023/09/16 11:42:41;;;;;;;;;;;;;;;16.65;55.47;101286.94;5068389;28;1104;-56
2023/09/16 11:45:07;;;;;;;;;;;;;;;16.60;55.17;101286.91;5055065;28;2599;-57
2023/09/16 11:47:32;;;;;;;;;;;;;;;16.60;55.21;101284.97;5070135;28;1016;-57
2023/09/16 11:49:58;;;;;;;;;;;;;;;16.58;54.96;101280.84;5058706;28;1913;-57
2023/09/16 11:52:24;;;;;;;;;;;;;;;16.58;54.90;101283.59;5062122;28;1157;-57
2023/09/16 11:54:50;;;;;;;;;;;;;;;16.55;54.91;101284.94;5068245;28;1023;-58
2023/09/16 11:57:15;;;;;;;;;;;;;;;16.51;55.17;101271.97;5061324;28;1078;-55
2023/09/16 11:59:41;;;;;;;;;;;;;;;16.51;55.00;101281.06;5051498;28;1160;-57
2023/09/16 12:02:06;;;;;;;;;;;;;;;16.52;55.10;101279.13;5056756;28;1054;-56
2023/09/16 12:04:34;;;;;;;;;;;;;;;16.46;54.92;101280.19;5041150;28;1047;-56
2023/09/16 12:07:00;;;;;;;;;;;;;;;16.46;55.05;101280.19;5061579;28;1192;-59
2023/09/16 12:09:27;;;;;;;;;;;;;;;16.45;55.00;101275.78;5074172;28;844;-58
2023/09/16 12:11:53;;;;;;;;;;;;;;;16.41;55.01;101278.19;5056881;28;1959;-58
2023/09/16 12:14:18;;;;;;;;;;;;;;;16.43;55.16;101284.28;5050973;28;2706;-58
2023/09/16 12:16:44;;;;;;;;;;;;;;;16.39;55.08;101286.69;5064732;28;1003;-55
2023/09/16 12:19:09;;;;;;;;;;;;;;;16.43;55.19;101287.84;5068206;28;1370;-57
2023/09/16 12:21:35;;;;;;;;;;;;;;;17.51;56.47;101284.25;5073365;28;1043;-56
2023/09/16 12:24:00;;;;;;;;;;;;;;;17.10;56.82;101279.34;5070001;28;1003;-56
2023/09/16 12:26:26;;;;;;;;;;;;;;;16.92;56.69;101280.59;5072593;28;1186;-57
2023/09/16 12:28:52;;;;;;;;;;;;;;;16.91;56.05;101287.16;5056730;28;1246;-58
2023/09/16 12:31:21;;;;;;;;;;;;;;;16.80;56.05;101285.41;5065665;28;1906;-57
2023/09/16 12:33:48;;;;;;;;;;;;;;;16.71;55.83;101296.06;5074169;28;899;-55
2023/09/16 12:36:18;;;;;;;;;;;;;;;16.68;55.50;101286.41;5076143;28;1074;-54
2023/09/16 12:38:43;;;;;;;;;;;;;;;16.67;55.52;101293.00;5066174;28;1142;-53
2023/09/16 12:41:09;;;;;;;;;;;;;;;16.57;55.55;101290.16;5053937;28;1107;-54
2023/09/16 12:43:34;;;;;;;;;;;;;;;16.53;55.42;101286.28;5071445;28;2419;-54